»·PEaware :: AAL2426 KSFO-KPSP

AAL2426 :: KSFO-KPSP

FLIGHT INFORMATION

Flight Status: Arrived
Operator:
American Airlines
More flights by this operator :: More flights under this callsign
Pilot: Gabriel S. (32862)
Aircraft: AIRBUS A320
(A320)
More flights by this aircraft type
Origin: KSFO San Francisco Intl
United States
Destination: KPSP Palm Springs Intl
United States
More flights between these airports :: More routes between these airports
Route: SSTIK4 LOSHN CLASN SIZLR3
File this flight plan on PilotEdge
Remarks: RMK / SIMBRIEF
Altitude:
(Current/Filed)
33,000ft
Speed:
(Current/Filed)
421kts
Departed: 07-Jan-21 06:46 PM
Arrived: 07-Jan-21 07:50 PM
Distance/Time
Traveled:
365nm/1:04
Distance/Time
To Go:
Arrived

Flight Plot

Page will automatically refresh every two minutes.

Flight plan parsing failed; only flown route is shown


Map Options




Map Legend


Flown Route
Filed Route
Departure Airport
Arrival Airport
Navaid (VOR, NDB)
Fix

Horizontal Profiles

Position Reports

Time Latitude Longitude Heading Altitude Ground
Speed
07-Jan-21 18:12 37.612661 -122.384666 6 17ft 0kts
07-Jan-21 18:13 37.612661 -122.384666 6 17ft 0kts
07-Jan-21 18:14 37.612661 -122.384666 6 17ft 0kts
07-Jan-21 18:16 37.612661 -122.384666 6 17ft 0kts
07-Jan-21 18:17 37.612661 -122.384666 6 17ft 0kts
07-Jan-21 18:18 37.612661 -122.384666 6 17ft 0kts
07-Jan-21 18:19 37.612661 -122.384666 6 17ft 0kts
07-Jan-21 18:20 37.612661 -122.384666 6 17ft 0kts
07-Jan-21 18:21 37.612661 -122.384666 6 17ft 0kts
07-Jan-21 18:22 37.612661 -122.384666 6 17ft 0kts
07-Jan-21 18:23 37.612661 -122.384666 6 17ft 0kts
07-Jan-21 18:24 37.612661 -122.384666 6 17ft 0kts
07-Jan-21 18:25 37.612661 -122.384666 6 17ft 0kts
07-Jan-21 18:26 37.612660 -122.384666 6 17ft 0kts
07-Jan-21 18:27 37.612660 -122.384666 6 17ft 0kts
07-Jan-21 18:28 37.612660 -122.384666 6 17ft 0kts
07-Jan-21 18:29 37.612660 -122.384666 6 17ft 0kts
07-Jan-21 18:30 37.612660 -122.384666 6 17ft 0kts
07-Jan-21 18:31 37.612660 -122.384666 6 17ft 0kts
07-Jan-21 18:32 37.612660 -122.384666 6 17ft 0kts
07-Jan-21 18:32 37.612660 -122.384666 6 17ft 0kts
07-Jan-21 18:33 37.612660 -122.384666 6 17ft 0kts
07-Jan-21 18:34 37.612660 -122.384666 6 17ft 0kts
07-Jan-21 18:36 37.612245 -122.384723 6 17ft 2kts
07-Jan-21 18:36 37.611747 -122.384792 6 18ft 2kts
07-Jan-21 18:37 37.611270 -122.384980 77 18ft 1kts
07-Jan-21 18:38 37.611259 -122.385055 75 18ft 0kts
07-Jan-21 18:39 37.611259 -122.385055 75 18ft 0kts
07-Jan-21 18:40 37.611263 -122.385034 75 18ft 0kts
07-Jan-21 18:41 37.611287 -122.383790 115 18ft 0kts
07-Jan-21 18:42 37.610793 -122.383529 193 18ft 10kts
07-Jan-21 18:43 37.609284 -122.384631 213 19ft 10kts
07-Jan-21 18:44 37.608489 -122.383909 116 18ft 0kts
07-Jan-21 18:45 37.610849 -122.380968 27 18ft 72kts
07-Jan-21 18:46 37.649666 -122.363022 3 1890ft 178kts
07-Jan-21 18:47 37.704606 -122.378254 302 3987ft 253kts
07-Jan-21 18:48 37.678955 -122.449820 189 7092ft 268kts
07-Jan-21 18:49 37.603086 -122.459733 188 9811ft 276kts
07-Jan-21 18:50 37.526346 -122.469784 188 10003ft 277kts
07-Jan-21 18:51 37.458651 -122.426727 131 10599ft 310kts
07-Jan-21 18:52 37.397864 -122.332020 131 11703ft 378kts
07-Jan-21 18:53 37.327960 -122.223512 132 13168ft 408kts
07-Jan-21 18:54 37.254589 -122.110063 132 14906ft 423kts
07-Jan-21 18:55 37.178688 -121.993238 132 16494ft 435kts
07-Jan-21 18:56 37.100690 -121.873611 132 17918ft 447kts
07-Jan-21 18:57 37.020518 -121.751110 132 19178ft 454kts
07-Jan-21 18:58 36.939688 -121.628030 132 19221ft 455kts
07-Jan-21 18:59 36.858783 -121.505314 132 19222ft 455kts
07-Jan-21 19:00 36.777304 -121.382241 132 19701ft 460kts
07-Jan-21 19:01 36.694222 -121.257129 132 20914ft 469kts
07-Jan-21 19:02 36.609271 -121.129721 132 22019ft 478kts
07-Jan-21 19:03 36.525823 -121.005027 132 23053ft 484kts
07-Jan-21 19:04 36.438787 -120.874918 132 23972ft 492kts
07-Jan-21 19:05 36.350704 -120.743151 131 24812ft 499kts
07-Jan-21 19:06 36.260684 -120.609062 131 25529ft 506kts
07-Jan-21 19:07 36.169803 -120.474217 131 26314ft 509kts
07-Jan-21 19:08 36.078357 -120.339074 131 27162ft 511kts
07-Jan-21 19:09 35.986492 -120.203851 131 28015ft 512kts
07-Jan-21 19:10 35.899501 -120.076315 130 28785ft 514kts
07-Jan-21 19:11 35.821206 -119.930455 113 29587ft 515kts
07-Jan-21 19:12 35.761022 -119.769853 114 30491ft 514kts
07-Jan-21 19:13 35.700180 -119.608964 114 31391ft 513kts
07-Jan-21 19:14 35.627446 -119.458404 134 32247ft 508kts
07-Jan-21 19:15 35.535378 -119.334303 135 33104ft 505kts
07-Jan-21 19:16 35.440241 -119.206261 135 33232ft 502kts
07-Jan-21 19:17 35.347551 -119.082012 136 33212ft 502kts
07-Jan-21 19:18 35.252757 -118.955900 136 33209ft 500kts
07-Jan-21 19:19 35.159189 -118.832207 136 33211ft 500kts
07-Jan-21 19:20 35.064532 -118.707506 137 33216ft 499kts
07-Jan-21 19:21 34.970303 -118.583785 137 33222ft 499kts
07-Jan-21 19:22 34.879235 -118.464653 137 33155ft 500kts
07-Jan-21 19:23 34.784777 -118.340922 132 31333ft 501kts
07-Jan-21 19:24 34.698035 -118.208090 129 27810ft 514kts
07-Jan-21 19:25 34.611439 -118.074253 130 24192ft 485kts
07-Jan-21 19:26 34.544949 -117.940630 118 22450ft 469kts
07-Jan-21 19:27 34.486847 -117.798954 118 21193ft 469kts
07-Jan-21 19:28 34.429033 -117.658143 118 20101ft 461kts
07-Jan-21 19:29 34.372131 -117.518898 118 19191ft 453kts
07-Jan-21 19:30 34.316005 -117.382212 118 18221ft 446kts
07-Jan-21 19:31 34.258532 -117.253957 121 16345ft 430kts
07-Jan-21 19:32 34.200670 -117.130370 121 16053ft 392kts
07-Jan-21 19:33 34.149578 -117.021627 122 15948ft 352kts
07-Jan-21 19:34 34.100868 -116.918260 121 15637ft 351kts
07-Jan-21 19:35 34.050811 -116.811263 121 14437ft 368kts
07-Jan-21 19:36 34.012506 -116.695375 108 12309ft 368kts
07-Jan-21 19:37 33.983941 -116.588176 108 11049ft 303kts
07-Jan-21 19:38 33.937787 -116.506836 137 9947ft 295kts
07-Jan-21 19:39 33.878563 -116.439475 136 8618ft 286kts
07-Jan-21 19:40 33.820727 -116.373180 134 7209ft 283kts
07-Jan-21 19:41 33.766759 -116.308685 134 6096ft 250kts
07-Jan-21 19:42 33.714012 -116.263833 195 5310ft 229kts
07-Jan-21 19:43 33.673384 -116.323403 251 4142ft 229kts
07-Jan-21 19:44 33.690153 -116.380979 322 3816ft 164kts
07-Jan-21 19:45 33.722986 -116.412800 323 3029ft 145kts
07-Jan-21 19:46 33.755808 -116.441766 322 2134ft 143kts
07-Jan-21 19:47 33.787902 -116.470607 324 1263ft 141kts
07-Jan-21 19:48 33.819783 -116.498834 323 480ft 140kts
07-Jan-21 19:49 33.833430 -116.512021 266 449ft 8kts
07-Jan-21 19:50 33.830156 -116.510254 143 440ft 27kts
07-Jan-21 19:51 33.825197 -116.505799 142 427ft 15kts
07-Jan-21 19:52 33.822567 -116.505095 255 420ft 7kts
07-Jan-21 19:53 33.822771 -116.505864 291 421ft 0kts
07-Jan-21 19:55 33.822771 -116.505864 291 421ft 0kts

Navigation Log

Ident Type
Flight plan parsing failed, navigation log unavailable